Dubuque, IA

8:00 AM CST on December 04, 2016 (GMT -0600)
Dubuque Regional | | Change Station
Active Advisory: Winter Weather Advisory Active Notice: Local Storm Report

Elev 1079 ft 42.40 °N, 90.70 °W | Updated 7 minutes ago

Snow
Snow Freezing Fog
30 °F
Feels Like 20 °F
N
13
Wind Variable Wind from SSE

Today
High -- | Low -- °F
--% Chance of Precip.
Yesterday
High -- | Low -- °F
Precip. -- in
Pressure 30.09 in
Visibility 0.5 miles
Clouds Overcast 900 ft
Windchill 20 °F
Dew Point 28 °F
Humidity 92%
Rainfall 0.19 in
Snow Depth Not available.
7:16 AM 4:30 PM
Waxing Crescent, 23% visible
METAR KDBQ 041353Z 15011KT 1/2SM R36/3000V4000FT SN FZFG OVC009 M01/M02 A3006 RMK AO2 SLP189 P0003 T10111022
Pressure 30.09 in
Visibility 0.5 miles
Clouds Overcast 900 ft
Windchill 20 °F
Dew Point 28 °F
Humidity 92%
Rainfall 0.19 in
Snow Depth Not available.
7:16 AM 4:30 PM
Waxing Crescent, 23% visible
METAR KDBQ 041353Z 15011KT 1/2SM R36/3000V4000FT SN FZFG OVC009 M01/M02 A3006 RMK AO2 SLP189 P0003 T10111022

10-Day Weather Forecast

Almanac

Astronomy

Dec. 04, 2016 Rise Set
Actual Time
Civil Twilight
Nautical Twilight
Astronomical Twilight
Moon
Length of Visible Light
Length of Day
Tomorrow will be .
, % of the Moon is Illuminated

Today's Extremes

State Highs State Lows

Community

WunderPhotos

Upload Photos

1,955,596 photos uploaded!

WunderBlog® & News

Nearby

Air Quality

  Air Quality AQ Index Pollutant
Not available.

Snow Depth

Station Depth Elevation

Earthquake Activity

City Distance Mag. Time & Date
Minimum magnitude displayed is 2.5.

Coastal Water Temperatures

Place Temperature

Stations

Nearby Weather Stations

Station Location Temp. Windchill Dew Point Humidity Wind Precip. Elev Updated Type
                   

Watches & Warnings

Winter Weather Advisory
Issued: 4:19 AM CST Dec. 4, 2016 – National Weather Service

... Winter Weather Advisory remains in effect until 3 PM CST this
afternoon...

* timing... snow will begin between midnight and 3 am and end
early Sunday afternoon. The heaviest snowfall is expected
between 7 am and noon.

* Snow accumulations... 2 to 4 inches.

* Impacts... accumulating wet snow may lead to hazardous travel
conditions. Roadways may be slick at times due to slushy snow
and visibilities will be less than one mile at times.

Precautionary/preparedness actions...

A Winter Weather Advisory for snow means that periods of snow
will cause primarily travel difficulties. Be prepared for snow
covered roads and limited visibilities... and use caution while
driving.